createdAt,value
2022-09-24T00:01:49.087Z,17.00
2022-09-24T00:04:17.518Z,21.50
2022-09-24T00:06:46.406Z,15.00
2022-09-24T00:09:16.323Z,15.00
2022-09-24T00:11:45.814Z,17.00
2022-09-24T00:14:14.002Z,18.00
2022-09-24T00:16:42.808Z,15.00
2022-09-24T00:19:11.579Z,21.00
2022-09-24T00:21:40.675Z,15.00
2022-09-24T00:24:10.407Z,15.00
2022-09-24T00:26:50.146Z,17.00
2022-09-24T00:29:22.194Z,15.00
2022-09-24T00:31:51.227Z,17.00
2022-09-24T00:34:19.869Z,20.00
2022-09-24T00:36:48.507Z,17.00
2022-09-24T00:39:17.039Z,18.00
2022-09-24T00:41:48.235Z,18.00
2022-09-24T00:44:54.662Z,15.50
2022-09-24T00:47:31.941Z,14.00
2022-09-24T00:50:06.374Z,16.50
2022-09-24T00:52:37.298Z,14.00
2022-09-24T00:55:05.716Z,15.00
2022-09-24T00:57:35.744Z,15.00
2022-09-24T01:00:04.515Z,14.50
2022-09-24T01:02:33.381Z,15.00
2022-09-24T01:05:01.769Z,18.00
2022-09-24T01:07:29.936Z,18.00
2022-09-24T01:09:58.104Z,16.00
2022-09-24T01:12:34.165Z,18.00
2022-09-24T01:15:16.683Z,19.00
2022-09-24T01:18:02.789Z,17.00
2022-09-24T01:20:48.657Z,16.00
2022-09-24T01:23:17.335Z,17.00
2022-09-24T01:25:57.492Z,17.00
2022-09-24T01:28:44.103Z,20.33
2022-09-24T01:31:16.905Z,17.67
2022-09-24T01:33:47.945Z,19.00
2022-09-24T01:36:17.646Z,16.00
2022-09-24T01:38:47.960Z,19.00
2022-09-24T01:41:17.505Z,20.50
2022-09-24T01:43:46.029Z,19.00
2022-09-24T01:46:17.145Z,17.00
2022-09-24T01:48:45.479Z,16.50
2022-09-24T01:51:13.086Z,17.00
2022-09-24T01:53:53.699Z,15.00
2022-09-24T01:56:27.504Z,15.00
2022-09-24T01:58:59.365Z,20.00
2022-09-24T02:01:32.188Z,20.00
2022-09-24T02:04:04.600Z,19.00
2022-09-24T02:06:40.499Z,17.00
2022-09-24T02:09:28.337Z,16.00
2022-09-24T02:11:58.730Z,15.50
2022-09-24T02:14:29.162Z,14.50
2022-09-24T02:16:58.969Z,17.00
2022-09-24T02:19:29.606Z,14.00
2022-09-24T02:21:57.876Z,15.00
2022-09-24T02:24:33.886Z,14.00
2022-09-24T02:27:02.047Z,16.00
2022-09-24T02:29:29.992Z,15.00
2022-09-24T02:31:58.953Z,13.00
2022-09-24T02:34:33.086Z,14.50
2022-09-24T02:37:05.497Z,15.00
2022-09-24T02:39:34.038Z,14.00
2022-09-24T02:42:05.691Z,16.00
2022-09-24T02:44:34.074Z,15.00
2022-09-24T02:47:02.051Z,17.00
2022-09-24T02:49:29.919Z,15.00
2022-09-24T02:51:57.998Z,15.00
2022-09-24T02:54:26.263Z,16.00
2022-09-24T02:56:54.438Z,15.50
2022-09-24T02:59:22.817Z,13.00
2022-09-24T03:01:50.918Z,12.00
2022-09-24T03:04:19.060Z,13.00
2022-09-24T03:06:47.292Z,16.00
2022-09-24T03:09:15.196Z,15.00
2022-09-24T03:11:43.205Z,13.00
2022-09-24T03:14:11.497Z,15.00
2022-09-24T03:16:39.623Z,13.00
2022-09-24T03:19:07.770Z,16.00
2022-09-24T03:21:35.662Z,12.00
2022-09-24T03:24:04.352Z,13.00
2022-09-24T03:26:32.121Z,16.33
2022-09-24T03:28:59.982Z,16.00
2022-09-24T03:31:27.913Z,16.00
2022-09-24T03:33:57.764Z,15.00
2022-09-24T03:36:28.794Z,16.50
2022-09-24T03:38:57.686Z,18.67
2022-09-24T03:41:27.851Z,19.00
2022-09-24T03:43:56.145Z,17.00
2022-09-24T03:46:28.630Z,16.00
2022-09-24T03:48:58.014Z,16.00
2022-09-24T03:51:26.134Z,16.00
2022-09-24T03:53:54.109Z,16.00
2022-09-24T03:56:21.880Z,16.00
2022-09-24T03:58:49.733Z,18.00
2022-09-24T04:01:21.609Z,14.00
2022-09-24T04:03:50.519Z,17.50
2022-09-24T04:06:23.470Z,15.00
2022-09-24T04:08:53.970Z,15.00
2022-09-24T04:11:22.188Z,14.00
2022-09-24T04:13:50.052Z,14.00
2022-09-24T04:16:18.177Z,16.00
2022-09-24T04:18:48.883Z,13.00
2022-09-24T04:21:18.153Z,15.00
2022-09-24T04:23:46.023Z,16.00
2022-09-24T04:26:14.000Z,16.00
2022-09-24T04:28:41.856Z,14.00
2022-09-24T04:31:09.829Z,19.00
2022-09-24T04:33:37.898Z,16.00
2022-09-24T04:36:05.616Z,17.00
2022-09-24T04:38:33.324Z,13.00
2022-09-24T04:41:06.006Z,17.00
2022-09-24T04:43:34.076Z,16.00
2022-09-24T04:46:02.202Z,18.00
2022-09-24T04:48:30.938Z,15.00
2022-09-24T04:50:58.694Z,18.50
2022-09-24T04:53:26.873Z,17.00
2022-09-24T04:55:54.734Z,13.00
2022-09-24T04:58:22.504Z,17.00
2022-09-24T05:00:51.396Z,13.00
2022-09-24T05:03:21.414Z,15.00
2022-09-24T05:05:50.510Z,14.00
2022-09-24T05:08:18.768Z,15.00
2022-09-24T05:10:46.647Z,17.00
2022-09-24T05:13:14.723Z,15.00
2022-09-24T05:15:43.461Z,16.00
2022-09-24T05:18:11.686Z,15.00
2022-09-24T05:20:39.553Z,17.00
2022-09-24T05:23:07.593Z,16.00
2022-09-24T05:25:55.563Z,19.00
2022-09-24T05:28:23.369Z,17.00
2022-09-24T05:30:51.288Z,18.00
2022-09-24T05:33:19.265Z,18.00
2022-09-24T05:35:53.067Z,35.00
2022-09-24T05:38:20.937Z,24.00
2022-09-24T05:40:48.801Z,18.00
2022-09-24T05:43:19.447Z,18.00
2022-09-24T05:45:49.173Z,20.00
2022-09-24T05:48:17.425Z,17.00
2022-09-24T05:50:45.286Z,18.00
2022-09-24T05:53:13.068Z,18.00
2022-09-24T05:55:42.656Z,19.00
2022-09-24T05:58:11.163Z,19.00
2022-09-24T06:00:39.008Z,16.00
2022-09-24T06:03:11.008Z,16.00
2022-09-24T06:05:38.805Z,16.50
2022-09-24T06:08:08.734Z,17.00
2022-09-24T06:10:36.821Z,14.00
2022-09-24T06:13:05.356Z,15.00
2022-09-24T06:15:33.278Z,16.50
2022-09-24T06:18:01.139Z,17.00
2022-09-24T06:20:28.894Z,14.00
2022-09-24T06:23:00.017Z,14.00
2022-09-24T06:25:28.464Z,14.00
2022-09-24T06:28:02.757Z,16.00
2022-09-24T06:30:34.437Z,13.00
2022-09-24T06:33:06.860Z,16.00
2022-09-24T06:35:36.192Z,16.00
2022-09-24T06:38:04.769Z,14.50
2022-09-24T06:40:36.931Z,17.00
2022-09-24T06:43:06.917Z,14.00
2022-09-24T06:45:35.113Z,15.00
2022-09-24T06:48:04.286Z,13.00
2022-09-24T06:50:34.559Z,15.50
2022-09-24T06:53:05.503Z,14.50
2022-09-24T06:55:34.260Z,5.00
2022-09-24T06:58:12.787Z,14.00
2022-09-24T07:00:41.202Z,14.00
2022-09-24T07:03:15.272Z,2.00
2022-09-24T07:05:43.873Z,6.00
2022-09-24T07:08:12.031Z,12.00
2022-09-24T07:10:47.683Z,13.00
2022-09-24T07:13:16.472Z,10.00
2022-09-24T07:15:45.229Z,14.00
2022-09-24T07:18:13.536Z,13.50
2022-09-24T07:20:41.915Z,14.00
2022-09-24T07:23:10.569Z,14.00
2022-09-24T07:25:38.804Z,14.00
2022-09-24T07:28:08.510Z,13.00
2022-09-24T07:30:37.104Z,15.50
2022-09-24T07:33:05.855Z,14.00
2022-09-24T07:35:34.338Z,13.00
2022-09-24T07:38:03.435Z,16.50
2022-09-24T07:40:32.395Z,13.00
2022-09-24T07:43:00.829Z,14.00
2022-09-24T07:45:29.945Z,12.00
2022-09-24T07:48:01.763Z,12.00
2022-09-24T07:50:31.059Z,11.50
2022-09-24T07:52:59.540Z,11.50
2022-09-24T07:55:27.729Z,12.00
2022-09-24T07:57:56.105Z,13.00
2022-09-24T08:00:25.394Z,14.00
2022-09-24T08:02:54.388Z,14.00
2022-09-24T08:05:22.486Z,15.00
2022-09-24T08:07:54.423Z,12.00
2022-09-24T08:10:23.420Z,14.00
2022-09-24T08:12:51.700Z,13.00
2022-09-24T08:15:19.864Z,13.00
2022-09-24T08:17:48.051Z,13.00
2022-09-24T08:20:16.021Z,15.00
2022-09-24T08:22:44.285Z,14.50
2022-09-24T08:25:12.118Z,17.00
2022-09-24T08:27:40.120Z,16.00
2022-09-24T08:30:08.511Z,18.50
2022-09-24T08:32:36.379Z,16.00
2022-09-24T08:35:04.529Z,19.00
2022-09-24T08:37:32.478Z,17.00
2022-09-24T08:40:01.404Z,17.00
2022-09-24T08:42:35.517Z,16.00
2022-09-24T08:45:23.249Z,19.50
2022-09-24T08:47:59.820Z,14.00
2022-09-24T08:50:29.533Z,13.00
2022-09-24T08:53:15.622Z,16.00
2022-09-24T08:55:48.097Z,15.00
2022-09-24T08:58:22.826Z,15.00
2022-09-24T09:00:57.666Z,15.00
2022-09-24T09:03:36.458Z,15.00
2022-09-24T09:06:10.097Z,13.50
2022-09-24T09:09:06.409Z,13.00
2022-09-24T09:11:37.146Z,12.00
2022-09-24T09:14:11.800Z,12.00
2022-09-24T09:16:46.809Z,10.00
2022-09-24T09:19:16.312Z,11.00
2022-09-24T09:21:47.045Z,15.50
2022-09-24T09:24:25.562Z,4.00
2022-09-24T09:26:55.686Z,13.00
2022-09-24T09:29:26.143Z,13.00
2022-09-24T09:32:03.197Z,12.00
2022-09-24T09:34:40.081Z,11.00
2022-09-24T09:37:13.415Z,11.50
2022-09-24T09:39:47.480Z,13.00
2022-09-24T09:42:30.686Z,12.00
2022-09-24T09:45:02.805Z,11.00
2022-09-24T09:47:41.509Z,13.00
2022-09-24T09:50:15.193Z,11.00
2022-09-24T09:52:43.274Z,12.50
2022-09-24T09:55:22.897Z,12.00
2022-09-24T09:57:52.104Z,13.00
2022-09-24T10:00:27.961Z,13.00
2022-09-24T10:02:56.107Z,12.00
2022-09-24T10:05:28.924Z,12.00
2022-09-24T10:07:59.823Z,12.00
2022-09-24T10:10:29.155Z,12.00
2022-09-24T10:13:10.539Z,12.00
2022-09-24T10:15:55.166Z,11.00
2022-09-24T10:18:43.443Z,14.00
2022-09-24T10:21:14.487Z,14.00
2022-09-24T10:23:44.703Z,13.00
2022-09-24T10:26:12.890Z,16.00
2022-09-24T10:29:07.396Z,15.00
2022-09-24T10:31:36.422Z,14.00
2022-09-24T10:34:05.876Z,12.00
2022-09-24T10:36:33.742Z,11.00
2022-09-24T10:39:21.998Z,11.00
2022-09-24T10:41:51.390Z,4.00
2022-09-24T10:44:20.792Z,9.00
2022-09-24T10:46:51.749Z,13.00
2022-09-24T10:49:32.498Z,10.00
2022-09-24T10:52:10.406Z,11.00
2022-09-24T10:54:50.049Z,12.00
2022-09-24T10:57:39.310Z,13.00
2022-09-24T11:00:19.569Z,12.00
2022-09-24T11:02:56.845Z,12.00
2022-09-24T11:05:30.326Z,10.00
2022-09-24T11:08:13.786Z,2.50
2022-09-24T11:10:57.011Z,3.00
2022-09-24T11:13:24.877Z,4.00
2022-09-24T11:16:12.174Z,4.00
2022-09-24T11:18:58.600Z,11.00
2022-09-24T11:21:26.411Z,11.00
2022-09-24T11:24:13.070Z,4.00
2022-09-24T11:26:54.559Z,3.00
2022-09-24T11:29:25.397Z,11.00
2022-09-24T11:32:06.581Z,3.00
2022-09-24T11:34:53.082Z,11.50
2022-09-24T11:37:21.460Z,3.00
2022-09-24T11:40:04.691Z,4.00
2022-09-24T11:42:53.444Z,11.50
2022-09-24T11:45:34.430Z,6.00
2022-09-24T11:48:02.387Z,2.00
2022-09-24T11:50:30.356Z,2.00
2022-09-24T11:53:22.084Z,4.00
2022-09-24T11:55:53.844Z,4.00
2022-09-24T11:58:35.891Z,9.00
2022-09-24T12:01:13.535Z,10.00
2022-09-24T12:03:53.386Z,10.00
2022-09-24T12:06:24.710Z,3.00
2022-09-24T12:09:01.813Z,7.00
2022-09-24T12:11:33.264Z,1.50
2022-09-24T12:14:22.016Z,2.50
2022-09-24T12:16:54.017Z,3.00
2022-09-24T12:19:27.760Z,10.00
2022-09-24T12:21:58.414Z,3.00
2022-09-24T12:24:33.208Z,2.00
2022-09-24T12:27:04.566Z,3.50
2022-09-24T12:29:50.818Z,2.00
2022-09-24T12:32:44.990Z,10.00
2022-09-24T12:35:21.836Z,10.67
2022-09-24T12:37:51.888Z,10.67
2022-09-24T12:40:28.691Z,10.67
2022-09-24T12:42:58.678Z,10.50
2022-09-24T12:45:27.582Z,7.50
2022-09-24T12:47:57.490Z,10.00
2022-09-24T12:50:27.536Z,9.00
2022-09-24T12:52:55.666Z,9.33
2022-09-24T12:55:25.675Z,3.00
2022-09-24T12:58:14.331Z,3.00
2022-09-24T13:00:43.961Z,2.50
2022-09-24T13:03:33.327Z,3.00
2022-09-24T13:06:01.642Z,5.00
2022-09-24T13:08:40.209Z,1.00
2022-09-24T13:11:29.797Z,3.00
2022-09-24T13:14:06.224Z,11.00
2022-09-24T13:16:38.743Z,6.00
2022-09-24T13:19:19.703Z,7.00
2022-09-24T13:21:53.707Z,10.67
2022-09-24T13:24:32.952Z,10.00
2022-09-24T13:27:21.808Z,9.67
2022-09-24T13:30:02.374Z,2.00
2022-09-24T13:32:34.533Z,12.75
2022-09-24T13:35:07.734Z,15.00
2022-09-24T13:37:39.640Z,14.00
2022-09-24T13:40:16.928Z,10.00
2022-09-24T13:42:59.904Z,9.33
2022-09-24T13:45:28.167Z,11.33
2022-09-24T13:48:02.436Z,11.00
2022-09-24T13:50:43.776Z,10.00
2022-09-24T13:53:17.478Z,11.00
2022-09-24T13:55:46.848Z,11.00
2022-09-24T13:58:28.183Z,11.00
2022-09-24T14:00:58.589Z,9.50
2022-09-24T14:03:29.015Z,10.00
2022-09-24T14:05:58.008Z,11.00
2022-09-24T14:08:28.127Z,8.00
2022-09-24T14:11:09.105Z,11.67
2022-09-24T14:13:46.127Z,5.00
2022-09-24T14:16:19.154Z,14.00
2022-09-24T14:18:47.965Z,14.00
2022-09-24T14:21:27.917Z,12.00
2022-09-24T14:24:01.464Z,11.00
2022-09-24T14:26:29.135Z,10.50
2022-09-24T14:28:58.797Z,12.00
2022-09-24T14:31:27.664Z,11.50
2022-09-24T14:33:56.254Z,15.33
2022-09-24T14:36:29.237Z,13.00
2022-09-24T14:38:59.645Z,13.50
2022-09-24T14:41:34.812Z,11.00
2022-09-24T14:44:08.025Z,13.33
2022-09-24T14:46:39.093Z,14.33
2022-09-24T14:49:17.765Z,14.50
2022-09-24T14:51:53.013Z,12.00
2022-09-24T14:54:42.579Z,11.33
2022-09-24T14:57:11.620Z,12.67
2022-09-24T14:59:41.674Z,11.67
2022-09-24T15:02:15.842Z,12.00
2022-09-24T15:04:48.688Z,11.00
2022-09-24T15:07:27.615Z,10.00
2022-09-24T15:09:59.779Z,11.00
2022-09-24T15:12:31.499Z,12.67
2022-09-24T15:15:17.521Z,13.00
2022-09-24T15:17:47.478Z,12.00
2022-09-24T15:20:15.819Z,11.00
2022-09-24T15:22:43.898Z,11.00
2022-09-24T15:25:14.855Z,11.00
2022-09-24T15:27:43.408Z,13.00
2022-09-24T15:30:14.305Z,11.00
2022-09-24T15:32:42.766Z,11.00
2022-09-24T15:35:15.312Z,9.00
2022-09-24T15:37:43.786Z,10.50
2022-09-24T15:40:23.562Z,11.00
2022-09-24T15:42:52.144Z,10.00
2022-09-24T15:45:24.410Z,11.00
2022-09-24T15:47:53.481Z,13.00
2022-09-24T15:50:22.708Z,13.67
2022-09-24T15:52:55.674Z,14.00
2022-09-24T15:55:24.249Z,13.00
2022-09-24T15:57:52.063Z,12.00
2022-09-24T16:00:21.438Z,12.00
2022-09-24T16:02:52.339Z,12.00
2022-09-24T16:05:20.443Z,14.00
2022-09-24T16:07:48.718Z,18.00
2022-09-24T16:10:16.898Z,11.50
2022-09-24T16:12:45.164Z,12.00
2022-09-24T16:15:14.386Z,11.00
2022-09-24T16:17:42.745Z,14.00
2022-09-24T16:20:10.812Z,11.50
2022-09-24T16:22:38.988Z,11.50
2022-09-24T16:25:07.263Z,11.00
2022-09-24T16:27:35.435Z,14.00
2022-09-24T16:30:04.133Z,18.00
2022-09-24T16:32:32.203Z,17.00
2022-09-24T16:35:00.165Z,15.00
2022-09-24T16:37:28.247Z,13.00
2022-09-24T16:39:56.506Z,13.00
2022-09-24T16:42:26.542Z,14.00
2022-09-24T16:44:54.395Z,12.00
2022-09-24T16:47:22.569Z,12.00
2022-09-24T16:49:50.641Z,12.33
2022-09-24T16:52:18.724Z,11.00
2022-09-24T16:54:46.708Z,9.00
2022-09-24T16:57:14.646Z,15.00
2022-09-24T16:59:42.521Z,13.00
2022-09-24T17:02:12.535Z,14.00
2022-09-24T17:04:40.576Z,17.00
2022-09-24T17:07:10.571Z,17.50
2022-09-24T17:09:57.161Z,15.00
2022-09-24T17:12:25.089Z,15.00
2022-09-24T17:14:52.981Z,14.00
2022-09-24T17:17:20.827Z,14.67
2022-09-24T17:19:48.700Z,13.00
2022-09-24T17:22:16.670Z,14.00
2022-09-24T17:24:44.743Z,14.00
2022-09-24T17:27:13.010Z,14.67
2022-09-24T17:29:40.776Z,14.00
2022-09-24T17:32:08.539Z,16.00
2022-09-24T17:34:36.509Z,16.00
2022-09-24T17:37:04.375Z,15.67
2022-09-24T17:39:32.247Z,15.00
2022-09-24T17:42:00.896Z,16.00
2022-09-24T17:44:28.897Z,18.00
2022-09-24T17:46:57.632Z,20.67
2022-09-24T17:49:25.716Z,19.00
2022-09-24T17:51:53.726Z,21.67
2022-09-24T17:54:23.524Z,20.00
2022-09-24T17:56:51.480Z,21.00
2022-09-24T17:59:22.900Z,21.00
2022-09-24T18:01:53.636Z,25.00
2022-09-24T18:04:21.766Z,22.00
2022-09-24T18:06:49.635Z,23.50
2022-09-24T18:09:18.934Z,21.00
2022-09-24T18:11:48.748Z,21.00
2022-09-24T18:14:18.039Z,21.00
2022-09-24T18:16:46.323Z,21.00
2022-09-24T18:19:17.181Z,21.00
2022-09-24T18:21:46.167Z,18.00
2022-09-24T18:24:14.700Z,19.33
2022-09-24T18:26:43.225Z,21.00
2022-09-24T18:29:15.947Z,21.50
2022-09-24T18:31:45.033Z,20.33
2022-09-24T18:34:15.030Z,23.33
2022-09-24T18:36:44.004Z,24.00
2022-09-24T18:39:13.631Z,23.00
2022-09-24T18:41:42.688Z,25.50
2022-09-24T18:44:11.285Z,22.00
2022-09-24T18:46:39.667Z,25.00
2022-09-24T18:49:07.735Z,26.33
2022-09-24T18:51:37.235Z,21.50
2022-09-24T18:54:07.452Z,26.67
2022-09-24T18:56:36.325Z,28.33
2022-09-24T18:59:09.753Z,33.50
2022-09-24T19:01:38.628Z,37.00
2022-09-24T19:04:09.194Z,33.33
2022-09-24T19:06:38.465Z,32.67
2022-09-24T19:09:06.438Z,32.00
2022-09-24T19:11:34.727Z,29.67
2022-09-24T19:14:05.758Z,32.00
2022-09-24T19:16:34.035Z,29.33
2022-09-24T19:19:02.024Z,29.33
2022-09-24T19:21:30.484Z,35.00
2022-09-24T19:23:58.732Z,33.67
2022-09-24T19:26:28.677Z,33.67
2022-09-24T19:28:57.304Z,34.67
2022-09-24T19:31:25.207Z,34.00
2022-09-24T19:33:53.640Z,33.00
2022-09-24T19:36:22.417Z,36.67
2022-09-24T19:38:50.733Z,33.00
2022-09-24T19:41:26.752Z,34.67
2022-09-24T19:44:01.167Z,37.00
2022-09-24T19:46:33.545Z,37.00
2022-09-24T19:49:02.111Z,36.00
2022-09-24T19:51:31.927Z,35.33
2022-09-24T19:54:01.273Z,33.33
2022-09-24T19:56:29.913Z,34.00
2022-09-24T19:58:59.104Z,29.00
2022-09-24T20:01:28.655Z,26.00
2022-09-24T20:03:57.813Z,31.00
2022-09-24T20:06:29.182Z,32.00
2022-09-24T20:08:57.444Z,29.33
2022-09-24T20:11:26.127Z,32.50
2022-09-24T20:13:55.635Z,35.00
2022-09-24T20:16:26.725Z,35.00
2022-09-24T20:18:57.797Z,33.67
2022-09-24T20:21:27.845Z,38.00
2022-09-24T20:23:57.722Z,37.00
2022-09-24T20:26:44.556Z,36.00
2022-09-24T20:29:13.784Z,37.33
2022-09-24T20:31:42.531Z,36.67
2022-09-24T20:34:10.555Z,32.33
2022-09-24T20:36:38.592Z,35.00
2022-09-24T20:39:06.547Z,26.00
2022-09-24T20:41:34.620Z,30.00
2022-09-24T20:44:02.746Z,29.00
2022-09-24T20:46:30.880Z,26.33
2022-09-24T20:48:59.988Z,28.50
2022-09-24T20:51:29.197Z,26.00
2022-09-24T20:53:58.662Z,31.00
2022-09-24T20:56:27.040Z,30.50
2022-09-24T20:58:54.881Z,29.50
2022-09-24T21:01:23.130Z,28.50
2022-09-24T21:03:51.223Z,26.67
2022-09-24T21:06:23.064Z,31.00
2022-09-24T21:08:51.832Z,27.00
2022-09-24T21:11:21.440Z,29.67
2022-09-24T21:13:50.970Z,34.00
2022-09-24T21:16:21.166Z,39.00
2022-09-24T21:18:50.138Z,31.67
2022-09-24T21:21:19.061Z,30.67
2022-09-24T21:23:48.865Z,33.67
2022-09-24T21:26:20.655Z,31.00
2022-09-24T21:28:50.201Z,31.00
2022-09-24T21:31:21.548Z,33.00
2022-09-24T21:33:52.659Z,26.67
2022-09-24T21:36:22.008Z,28.33
2022-09-24T21:38:56.007Z,31.00
2022-09-24T21:41:24.892Z,23.33
2022-09-24T21:43:56.041Z,29.00
2022-09-24T21:46:27.848Z,29.00
2022-09-24T21:48:55.971Z,28.67
2022-09-24T21:51:25.589Z,29.00
2022-09-24T21:53:54.789Z,28.00
2022-09-24T21:56:23.256Z,29.67
2022-09-24T21:58:52.668Z,33.00
2022-09-24T22:01:46.820Z,30.00
2022-09-24T22:04:14.816Z,28.00
2022-09-24T22:06:42.629Z,26.50
2022-09-24T22:09:10.808Z,29.33
2022-09-24T22:11:38.669Z,24.67
2022-09-24T22:14:07.096Z,30.67
2022-09-24T22:16:36.012Z,36.00
2022-09-24T22:19:06.207Z,28.00
2022-09-24T22:21:34.488Z,32.00
2022-09-24T22:24:02.424Z,36.00
2022-09-24T22:26:30.526Z,36.33
2022-09-24T22:28:58.696Z,35.50
2022-09-24T22:31:26.839Z,36.00
2022-09-24T22:34:13.115Z,37.00
2022-09-24T22:36:41.350Z,36.33
2022-09-24T22:39:09.410Z,39.00
2022-09-24T22:41:40.185Z,34.00
2022-09-24T22:44:08.637Z,35.00
2022-09-24T22:46:38.473Z,32.67
2022-09-24T22:49:06.421Z,33.00
2022-09-24T22:51:34.583Z,29.00
2022-09-24T22:54:02.573Z,30.33
2022-09-24T22:56:30.751Z,28.67
2022-09-24T22:58:59.721Z,32.50
2022-09-24T23:01:32.407Z,30.00
2022-09-24T23:04:01.619Z,30.00
2022-09-24T23:06:31.000Z,32.67
2022-09-24T23:08:59.788Z,31.33
2022-09-24T23:11:29.401Z,35.00
2022-09-24T23:13:58.602Z,27.67
2022-09-24T23:16:28.242Z,28.67
2022-09-24T23:18:58.021Z,32.00
2022-09-24T23:21:26.996Z,29.00
2022-09-24T23:23:55.810Z,33.67
2022-09-24T23:26:25.007Z,25.00
2022-09-24T23:28:54.306Z,25.33
2022-09-24T23:31:25.449Z,30.33
2022-09-24T23:33:57.166Z,40.33
2022-09-24T23:36:26.397Z,40.00
2022-09-24T23:38:54.777Z,38.00
2022-09-24T23:41:22.653Z,31.67
2022-09-24T23:43:50.715Z,33.67
2022-09-24T23:46:19.027Z,33.33
2022-09-24T23:48:47.280Z,35.33
2022-09-24T23:51:15.147Z,30.67
2022-09-24T23:53:43.008Z,32.33
2022-09-24T23:56:12.326Z,35.33
2022-09-24T23:58:42.333Z,29.00
